createdAt,value
2023-09-01T00:02:07.343Z,99049.25
2023-09-01T00:04:49.543Z,99052.59
2023-09-01T00:07:16.019Z,99055.41
2023-09-01T00:09:42.423Z,99052.22
2023-09-01T00:12:08.833Z,99046.59
2023-09-01T00:14:35.283Z,99061.06
2023-09-01T00:17:01.719Z,99050.13
2023-09-01T00:19:28.218Z,99053.16
2023-09-01T00:21:54.666Z,99058.31
2023-09-01T00:24:21.081Z,99049.72
2023-09-01T00:26:47.532Z,99051.22
2023-09-01T00:29:14.423Z,99050.41
2023-09-01T00:31:40.882Z,99058.06
2023-09-01T00:34:07.306Z,99057.19
2023-09-01T00:36:33.708Z,99059.66
2023-09-01T00:39:00.141Z,99060.28
2023-09-01T00:41:26.574Z,99062.69
2023-09-01T00:43:53.019Z,99050.00
2023-09-01T00:46:19.589Z,99055.88
2023-09-01T00:48:46.227Z,99058.63
2023-09-01T00:51:12.673Z,99056.59
2023-09-01T00:53:39.106Z,99060.53
2023-09-01T00:56:05.551Z,99062.38
2023-09-01T00:58:31.970Z,99054.91
2023-09-01T01:00:58.446Z,99056.88
2023-09-01T01:03:24.981Z,99059.34
2023-09-01T01:05:51.469Z,99067.03
2023-09-01T01:08:17.892Z,99068.69
2023-09-01T01:10:44.360Z,99071.44
2023-09-01T01:13:10.787Z,99072.94
2023-09-01T01:15:37.216Z,99069.78
2023-09-01T01:18:03.674Z,99065.72
2023-09-01T01:20:30.151Z,99075.81
2023-09-01T01:22:56.609Z,99071.47
2023-09-01T01:25:23.078Z,99079.28
2023-09-01T01:27:49.584Z,99087.09
2023-09-01T01:30:16.028Z,99084.69
2023-09-01T01:32:42.687Z,99087.00
2023-09-01T01:35:09.111Z,99087.38
2023-09-01T01:37:35.577Z,99081.78
2023-09-01T01:40:02.020Z,99081.34
2023-09-01T01:42:28.529Z,99082.13
2023-09-01T01:44:54.956Z,99078.22
2023-09-01T01:47:21.432Z,99080.09
2023-09-01T01:49:47.866Z,99083.94
2023-09-01T01:52:14.264Z,99074.16
2023-09-01T01:54:40.746Z,99078.06
2023-09-01T01:57:07.176Z,99080.38
2023-09-01T01:59:33.664Z,99079.56
2023-09-01T02:02:00.104Z,99078.34
2023-09-01T02:04:26.594Z,99079.94
2023-09-01T02:06:53.044Z,99075.59
2023-09-01T02:09:20.380Z,99082.59
2023-09-01T02:11:46.793Z,99085.63
2023-09-01T02:14:13.258Z,99083.22
2023-09-01T02:16:39.688Z,99075.78
2023-09-01T02:19:06.221Z,99082.09
2023-09-01T02:21:32.657Z,99083.94
2023-09-01T02:23:59.107Z,99086.69
2023-09-01T02:26:25.581Z,99090.47
2023-09-01T02:28:51.983Z,99083.38
2023-09-01T02:31:18.475Z,99089.22
2023-09-01T02:33:44.970Z,99090.38
2023-09-01T02:36:11.407Z,99098.19
2023-09-01T02:38:37.854Z,99098.53
2023-09-01T02:41:04.281Z,99096.22
2023-09-01T02:43:30.713Z,99099.44
2023-09-01T02:45:57.117Z,99099.78
2023-09-01T02:48:23.572Z,99097.72
2023-09-01T02:50:50.022Z,99095.31
2023-09-01T02:53:16.539Z,99103.16
2023-09-01T02:55:42.972Z,99099.16
2023-09-01T02:58:09.425Z,99102.25
2023-09-01T03:00:35.899Z,99109.69
2023-09-01T03:03:02.488Z,99104.19
2023-09-01T03:05:29.063Z,99105.34
2023-09-01T03:07:55.580Z,99102.94
2023-09-01T03:10:22.045Z,99096.56
2023-09-01T03:12:48.478Z,99095.78
2023-09-01T03:15:14.939Z,99092.94
2023-09-01T03:17:41.547Z,99097.19
2023-09-01T03:20:08.200Z,99095.16
2023-09-01T03:22:34.638Z,99099.41
2023-09-01T03:25:01.177Z,99087.88
2023-09-01T03:27:27.734Z,99097.28
2023-09-01T03:29:54.156Z,99092.47
2023-09-01T03:32:22.473Z,99088.13
2023-09-01T03:34:48.954Z,99084.13
2023-09-01T03:37:15.446Z,99085.63
2023-09-01T03:39:41.943Z,99081.28
2023-09-01T03:42:08.410Z,99087.94
2023-09-01T03:44:34.881Z,99088.28
2023-09-01T03:47:01.371Z,99094.13
2023-09-01T03:49:29.648Z,99093.50
2023-09-01T03:51:56.094Z,99093.84
2023-09-01T03:54:22.545Z,99089.84
2023-09-01T03:56:48.962Z,99088.97
2023-09-01T03:59:16.202Z,99094.81
2023-09-01T04:01:42.626Z,99097.69
2023-09-01T04:04:09.078Z,99100.69
2023-09-01T04:06:35.493Z,99107.84
2023-09-01T04:09:01.963Z,99108.06
2023-09-01T04:11:28.428Z,99126.03
2023-09-01T04:13:54.855Z,99111.63
2023-09-01T04:16:21.771Z,99111.28
2023-09-01T04:18:48.758Z,99104.31
2023-09-01T04:21:15.188Z,99105.09
2023-09-01T04:23:42.422Z,99108.34
2023-09-01T04:26:09.608Z,99104.00
2023-09-01T04:28:36.063Z,99111.75
2023-09-01T04:31:03.001Z,99115.28
2023-09-01T04:33:30.852Z,99108.22
2023-09-01T04:35:57.312Z,99107.56
2023-09-01T04:38:23.739Z,99103.06
2023-09-01T04:40:50.164Z,99109.25
2023-09-01T04:43:16.647Z,99103.88
2023-09-01T04:45:43.095Z,99112.53
2023-09-01T04:48:09.630Z,99109.91
2023-09-01T04:50:36.226Z,99112.63
2023-09-01T04:53:02.645Z,99102.81
2023-09-01T04:55:29.141Z,99112.63
2023-09-01T04:57:55.564Z,99113.19
2023-09-01T05:00:22.023Z,99106.22
2023-09-01T05:02:48.523Z,99117.75
2023-09-01T05:05:15.008Z,99122.66
2023-09-01T05:07:42.528Z,99120.94
2023-09-01T05:10:09.012Z,99126.53
2023-09-01T05:12:35.426Z,99129.34
2023-09-01T05:15:01.865Z,99136.09
2023-09-01T05:17:28.393Z,99137.59
2023-09-01T05:19:55.038Z,99137.69
2023-09-01T05:22:21.551Z,99134.03
2023-09-01T05:24:47.952Z,99135.47
2023-09-01T05:27:14.382Z,99137.84
2023-09-01T05:29:40.820Z,99146.91
2023-09-01T05:32:07.268Z,99150.88
2023-09-01T05:34:33.729Z,99150.63
2023-09-01T05:37:00.178Z,99147.56
2023-09-01T05:39:26.684Z,99148.28
2023-09-01T05:41:53.100Z,99149.38
2023-09-01T05:44:19.639Z,99152.03
2023-09-01T05:46:46.108Z,99153.31
2023-09-01T05:49:12.652Z,99153.34
2023-09-01T05:51:39.046Z,99151.50
2023-09-01T05:54:05.571Z,99154.78
2023-09-01T05:56:31.997Z,99153.09
2023-09-01T05:58:58.405Z,99149.88
2023-09-01T06:01:24.933Z,99153.28
2023-09-01T06:03:51.517Z,99148.78
2023-09-01T06:06:17.925Z,99148.50
2023-09-01T06:08:46.439Z,99147.53
2023-09-01T06:11:13.036Z,99153.03
2023-09-01T06:13:39.458Z,99155.81
2023-09-01T06:16:05.946Z,99154.69
2023-09-01T06:18:32.423Z,99150.47
2023-09-01T06:20:58.872Z,99151.06
2023-09-01T06:23:25.325Z,99159.44
2023-09-01T06:25:51.738Z,99161.38
2023-09-01T06:28:18.307Z,99151.31
2023-09-01T06:30:44.899Z,99154.66
2023-09-01T06:33:11.447Z,99149.56
2023-09-01T06:35:37.902Z,99146.78
2023-09-01T06:38:04.310Z,99147.81
2023-09-01T06:40:30.768Z,99156.56
2023-09-01T06:42:57.217Z,99151.16
2023-09-01T06:45:23.636Z,99153.59
2023-09-01T06:47:50.114Z,99151.50
2023-09-01T06:50:16.548Z,99156.31
2023-09-01T06:52:43.018Z,99157.78
2023-09-01T06:55:09.440Z,99161.94
2023-09-01T06:57:35.881Z,99162.31
2023-09-01T07:00:02.331Z,99150.69
2023-09-01T07:02:28.784Z,99149.94
2023-09-01T07:04:55.202Z,99155.84
2023-09-01T07:07:21.633Z,99153.63
2023-09-01T07:09:48.064Z,99156.81
2023-09-01T07:12:14.496Z,99155.69
2023-09-01T07:14:40.917Z,99149.56
2023-09-01T07:17:07.351Z,99154.88
2023-09-01T07:19:33.797Z,99154.22
2023-09-01T07:22:00.241Z,99155.16
2023-09-01T07:24:26.640Z,99149.44
2023-09-01T07:26:53.106Z,99149.66
2023-09-01T07:29:19.501Z,99141.91
2023-09-01T07:31:46.020Z,99149.22
2023-09-01T07:34:12.478Z,99152.78
2023-09-01T07:36:38.914Z,99156.50
2023-09-01T07:39:05.396Z,99157.84
2023-09-01T07:41:31.825Z,99160.69
2023-09-01T07:43:58.275Z,99162.47
2023-09-01T07:46:24.725Z,99159.88
2023-09-01T07:48:51.208Z,99159.03
2023-09-01T07:51:17.674Z,99157.28
2023-09-01T07:53:44.089Z,99152.22
2023-09-01T07:56:10.550Z,99160.19
2023-09-01T07:58:36.985Z,99160.41
2023-09-01T08:01:03.578Z,99151.53
2023-09-01T08:03:30.541Z,99161.84
2023-09-01T08:05:57.268Z,99162.69
2023-09-01T08:08:23.674Z,99169.47
2023-09-01T08:10:50.112Z,99160.41
2023-09-01T08:13:16.636Z,99163.22
2023-09-01T08:15:43.089Z,99154.31
2023-09-01T08:18:09.572Z,99157.63
2023-09-01T08:20:36.035Z,99158.53
2023-09-01T08:23:02.437Z,99157.84
2023-09-01T08:25:28.958Z,99170.94
2023-09-01T08:27:55.386Z,99159.16
2023-09-01T08:30:21.799Z,99151.59
2023-09-01T08:32:48.269Z,99155.38
2023-09-01T08:35:14.729Z,99157.41
2023-09-01T08:37:41.225Z,99167.38
2023-09-01T08:40:07.758Z,99161.59
2023-09-01T08:42:34.270Z,99160.25
2023-09-01T08:45:00.752Z,99158.69
2023-09-01T08:47:27.238Z,99164.63
2023-09-01T08:49:53.682Z,99158.81
2023-09-01T08:52:20.116Z,99160.84
2023-09-01T08:54:46.567Z,99162.56
2023-09-01T08:57:12.975Z,99170.94
2023-09-01T08:59:39.402Z,99172.84
2023-09-01T09:02:05.849Z,99164.78
2023-09-01T09:04:32.345Z,99176.53
2023-09-01T09:06:58.798Z,99170.22
2023-09-01T09:09:25.221Z,99178.25
2023-09-01T09:11:51.681Z,99174.47
2023-09-01T09:14:18.105Z,99174.19
2023-09-01T09:16:44.619Z,99169.56
2023-09-01T09:19:11.185Z,99177.94
2023-09-01T09:21:37.754Z,99171.34
2023-09-01T09:24:21.219Z,99176.94
2023-09-01T09:26:49.031Z,99171.00
2023-09-01T09:29:15.415Z,99176.66
2023-09-01T09:31:41.927Z,99170.38
2023-09-01T09:34:08.388Z,99181.50
2023-09-01T09:36:34.830Z,99191.44
2023-09-01T09:39:01.237Z,99187.91
2023-09-01T09:41:27.695Z,99181.25
2023-09-01T09:43:54.105Z,99184.41
2023-09-01T09:46:20.608Z,99172.19
2023-09-01T09:48:47.145Z,99180.53
2023-09-01T09:51:13.652Z,99175.88
2023-09-01T09:53:42.407Z,99175.97
2023-09-01T09:56:09.244Z,99181.91
2023-09-01T09:58:35.655Z,99182.72
2023-09-01T10:01:02.087Z,99183.16
2023-09-01T10:03:28.624Z,99178.81
2023-09-01T10:05:55.098Z,99174.91
2023-09-01T10:08:21.521Z,99177.69
2023-09-01T10:10:48.746Z,99170.19
2023-09-01T10:13:15.247Z,99169.00
2023-09-01T10:15:41.681Z,99172.19
2023-09-01T10:18:08.252Z,99172.59
2023-09-01T10:20:34.734Z,99173.78
2023-09-01T10:23:01.276Z,99172.19
2023-09-01T10:25:27.733Z,99166.28
2023-09-01T10:27:54.198Z,99167.53
2023-09-01T10:30:20.608Z,99164.38
2023-09-01T10:32:47.052Z,99162.38
2023-09-01T10:35:15.598Z,99169.13
2023-09-01T10:37:42.976Z,99150.13
2023-09-01T10:40:09.402Z,99158.06
2023-09-01T10:42:35.820Z,99152.94
2023-09-01T10:45:02.296Z,99156.09
2023-09-01T10:47:28.779Z,99153.31
2023-09-01T10:49:55.211Z,99153.34
2023-09-01T10:52:21.689Z,99145.81
2023-09-01T10:54:48.143Z,99161.28
2023-09-01T10:57:14.582Z,99151.38
2023-09-01T10:59:41.042Z,99136.69
2023-09-01T11:02:07.501Z,99137.91
2023-09-01T11:04:34.060Z,99135.91
2023-09-01T11:07:00.581Z,99138.28
2023-09-01T11:09:27.029Z,99136.91
2023-09-01T11:11:53.483Z,99150.38
2023-09-01T11:14:19.888Z,99143.97
2023-09-01T11:16:46.306Z,99158.22
2023-09-01T11:19:12.752Z,99156.25
2023-09-01T11:21:39.174Z,99150.72
2023-09-01T11:24:05.633Z,99155.88
2023-09-01T11:26:32.040Z,99142.88
2023-09-01T11:28:58.476Z,99135.75
2023-09-01T11:31:24.880Z,99150.56
2023-09-01T11:33:51.299Z,99135.97
2023-09-01T11:36:17.705Z,99124.91
2023-09-01T11:38:44.136Z,99140.84
2023-09-01T11:41:10.779Z,99129.47
2023-09-01T11:43:37.341Z,99116.03
2023-09-01T11:46:03.823Z,99119.38
2023-09-01T11:48:30.323Z,99123.09
2023-09-01T11:50:56.840Z,99110.63
2023-09-01T11:53:23.263Z,99108.59
2023-09-01T11:55:49.684Z,99123.31
2023-09-01T11:58:16.104Z,99110.06
2023-09-01T12:00:42.523Z,99103.53
2023-09-01T12:03:08.998Z,99120.00
2023-09-01T12:05:35.460Z,99105.94
2023-09-01T12:08:01.876Z,99104.75
2023-09-01T12:10:28.314Z,99114.22
2023-09-01T12:12:54.721Z,99125.47
2023-09-01T12:15:21.204Z,99116.13
2023-09-01T12:17:47.650Z,99120.19
2023-09-01T12:20:14.147Z,99119.88
2023-09-01T12:22:40.617Z,99104.50
2023-09-01T12:25:07.054Z,99123.81
2023-09-01T12:27:33.471Z,99117.19
2023-09-01T12:29:59.934Z,99124.59
2023-09-01T12:32:26.435Z,99110.25
2023-09-01T12:34:54.650Z,99117.84
2023-09-01T12:37:21.399Z,99118.00
2023-09-01T12:39:47.875Z,99116.03
2023-09-01T12:42:14.334Z,99108.59
2023-09-01T12:44:40.900Z,99106.88
2023-09-01T12:47:09.952Z,99122.22
2023-09-01T12:49:36.871Z,99105.66
2023-09-01T12:52:03.315Z,99107.88
2023-09-01T12:54:29.727Z,99121.50
2023-09-01T12:56:56.154Z,99114.88
2023-09-01T12:59:22.577Z,99123.22
2023-09-01T13:01:49.075Z,99118.56
2023-09-01T13:04:15.536Z,99122.09
2023-09-01T13:06:42.018Z,99125.84
2023-09-01T13:09:08.417Z,99105.94
2023-09-01T13:11:34.891Z,99122.66
2023-09-01T13:14:01.308Z,99117.19
2023-09-01T13:16:27.840Z,99105.91
2023-09-01T13:18:54.314Z,99112.56
2023-09-01T13:21:20.745Z,99102.97
2023-09-01T13:23:47.177Z,99107.22
2023-09-01T13:26:13.560Z,99112.81
2023-09-01T13:28:40.022Z,99111.38
2023-09-01T13:31:06.478Z,99115.19
2023-09-01T13:33:32.962Z,99115.78
2023-09-01T13:35:59.431Z,99116.50
2023-09-01T13:38:25.870Z,99118.50
2023-09-01T13:40:52.268Z,99122.34
2023-09-01T13:43:18.762Z,99119.81
2023-09-01T13:45:45.246Z,99125.09
2023-09-01T13:48:11.695Z,99126.03
2023-09-01T13:50:38.153Z,99120.63
2023-09-01T13:53:04.566Z,99128.25
2023-09-01T13:55:31.005Z,99128.75
2023-09-01T13:57:57.415Z,99131.25
2023-09-01T14:00:23.867Z,99124.16
2023-09-01T14:02:50.353Z,99118.28
2023-09-01T14:05:16.824Z,99131.41
2023-09-01T14:07:43.328Z,99115.63
2023-09-01T14:10:09.778Z,99129.94
2023-09-01T14:12:36.223Z,99124.03
2023-09-01T14:15:02.667Z,99124.91
2023-09-01T14:17:29.092Z,99116.66
2023-09-01T14:19:55.538Z,99125.75
2023-09-01T14:22:21.966Z,99123.00
2023-09-01T14:24:48.412Z,99126.22
2023-09-01T14:27:14.842Z,99131.78
2023-09-01T14:29:41.296Z,99130.63
2023-09-01T14:32:07.693Z,99140.50
2023-09-01T14:34:34.132Z,99138.16
2023-09-01T14:37:00.576Z,99136.16
2023-09-01T14:39:27.102Z,99142.91
2023-09-01T14:41:53.557Z,99139.75
2023-09-01T14:44:20.000Z,99136.19
2023-09-01T14:46:46.411Z,99140.59
2023-09-01T14:49:12.830Z,99141.00
2023-09-01T14:51:39.265Z,99134.25
2023-09-01T14:54:05.717Z,99133.47
2023-09-01T14:56:32.122Z,99135.03
2023-09-01T14:58:58.610Z,99131.88
2023-09-01T15:01:25.033Z,99141.78
2023-09-01T15:03:51.673Z,99131.88
2023-09-01T15:06:18.239Z,99136.22
2023-09-01T15:08:44.704Z,99132.69
2023-09-01T15:11:11.159Z,99134.69
2023-09-01T15:13:37.601Z,99131.50
2023-09-01T15:16:04.085Z,99127.56
2023-09-01T15:18:30.528Z,99128.72
2023-09-01T15:20:56.957Z,99128.34
2023-09-01T15:23:23.393Z,99123.19
2023-09-01T15:25:49.813Z,99120.41
2023-09-01T15:28:16.240Z,99119.25
2023-09-01T15:30:42.675Z,99118.44
2023-09-01T15:33:09.138Z,99128.75
2023-09-01T15:35:35.650Z,99124.78
2023-09-01T15:38:02.107Z,99123.19
2023-09-01T15:40:28.620Z,99121.22
2023-09-01T15:42:55.173Z,99118.44
2023-09-01T15:45:21.607Z,99118.44
2023-09-01T15:47:48.062Z,99118.44
2023-09-01T15:50:14.501Z,99124.00
2023-09-01T15:52:40.971Z,99122.00
2023-09-01T15:55:07.495Z,99120.84
2023-09-01T15:57:33.943Z,99110.53
2023-09-01T16:00:00.369Z,99116.47
2023-09-01T16:02:26.920Z,99120.03
2023-09-01T16:04:53.861Z,99117.25
2023-09-01T16:07:20.321Z,99113.28
2023-09-01T16:09:46.705Z,99119.63
2023-09-01T16:12:13.132Z,99110.53
2023-09-01T16:14:39.530Z,99118.81
2023-09-01T16:17:05.969Z,99113.28
2023-09-01T16:19:32.393Z,99118.44
2023-09-01T16:21:58.772Z,99108.94
2023-09-01T16:24:25.213Z,99103.78
2023-09-01T16:26:51.601Z,99108.53
2023-09-01T16:29:18.024Z,99106.97
2023-09-01T16:31:44.589Z,99107.75
2023-09-01T16:34:11.042Z,99104.97
2023-09-01T16:36:37.461Z,99106.56
2023-09-01T16:39:03.881Z,99104.56
2023-09-01T16:41:30.307Z,99106.19
2023-09-01T16:43:56.746Z,99108.13
2023-09-01T16:46:23.202Z,99115.28
2023-09-01T16:48:49.622Z,99096.25
2023-09-01T16:51:16.047Z,99107.34
2023-09-01T16:53:42.460Z,99098.22
2023-09-01T16:56:08.895Z,99108.94
2023-09-01T16:58:35.299Z,99096.66
2023-09-01T17:01:01.773Z,99108.13
2023-09-01T17:03:28.360Z,99103.78
2023-09-01T17:05:54.787Z,99097.81
2023-09-01T17:08:21.225Z,99111.69
2023-09-01T17:10:47.632Z,99103.38
2023-09-01T17:13:14.287Z,99110.50
2023-09-01T17:15:40.881Z,99109.69
2023-09-01T17:18:07.362Z,99110.50
2023-09-01T17:20:33.820Z,99116.44
2023-09-01T17:23:00.225Z,99125.16
2023-09-01T17:25:26.635Z,99121.59
2023-09-01T17:27:53.037Z,99120.00
2023-09-01T17:30:19.432Z,99124.75
2023-09-01T17:32:45.909Z,99124.34
2023-09-01T17:35:12.395Z,99124.75
2023-09-01T17:37:38.804Z,99122.00
2023-09-01T17:40:05.249Z,99120.78
2023-09-01T17:42:31.668Z,99129.13
2023-09-01T17:44:58.206Z,99143.75
2023-09-01T17:47:24.669Z,99141.41
2023-09-01T17:49:51.155Z,99141.41
2023-09-01T17:52:17.588Z,99146.91
2023-09-01T17:54:44.044Z,99146.91
2023-09-01T17:57:10.441Z,99148.13
2023-09-01T17:59:36.992Z,99150.88
2023-09-01T18:02:03.562Z,99143.34
2023-09-01T18:04:30.431Z,99147.66
2023-09-01T18:06:56.932Z,99143.69
2023-09-01T18:09:23.365Z,99149.66
2023-09-01T18:11:49.827Z,99146.09
2023-09-01T18:14:16.292Z,99151.59
2023-09-01T18:16:42.708Z,99154.00
2023-09-01T18:19:09.134Z,99150.03
2023-09-01T18:21:35.605Z,99150.81
2023-09-01T18:24:02.060Z,99145.69
2023-09-01T18:26:28.481Z,99152.38
2023-09-01T18:28:54.900Z,99147.25
2023-09-01T18:31:21.400Z,99152.38
2023-09-01T18:33:47.932Z,99152.38
2023-09-01T18:36:14.385Z,99154.31
2023-09-01T18:38:40.803Z,99146.41
2023-09-01T18:41:07.256Z,99146.78
2023-09-01T18:43:33.712Z,99145.22
2023-09-01T18:46:00.181Z,99144.06
2023-09-01T18:48:26.637Z,99145.63
2023-09-01T18:50:53.109Z,99152.75
2023-09-01T18:53:19.921Z,99147.19
2023-09-01T18:55:46.525Z,99150.34
2023-09-01T18:58:13.017Z,99153.09
2023-09-01T19:00:39.423Z,99152.31
2023-09-01T19:03:05.979Z,99155.50
2023-09-01T19:05:32.478Z,99153.09
2023-09-01T19:07:58.928Z,99155.09
2023-09-01T19:10:25.344Z,99151.13
2023-09-01T19:12:51.741Z,99147.13
2023-09-01T19:15:18.178Z,99145.16
2023-09-01T19:17:44.635Z,99146.34
2023-09-01T19:20:11.116Z,99151.47
2023-09-01T19:22:37.577Z,99150.28
2023-09-01T19:25:03.949Z,99155.00
2023-09-01T19:27:30.463Z,99158.56
2023-09-01T19:29:56.895Z,99160.13
2023-09-01T19:32:23.403Z,99163.66
2023-09-01T19:34:50.054Z,99163.25
2023-09-01T19:37:16.461Z,99162.84
2023-09-01T19:39:42.923Z,99158.06
2023-09-01T19:42:09.426Z,99161.22
2023-09-01T19:44:35.848Z,99165.94
2023-09-01T19:47:02.309Z,99164.78
2023-09-01T19:49:28.879Z,99162.78
2023-09-01T19:51:55.333Z,99167.16
2023-09-01T19:54:21.753Z,99167.50
2023-09-01T19:56:48.183Z,99172.22
2023-09-01T19:59:14.607Z,99179.78
2023-09-01T20:01:41.092Z,99177.41
2023-09-01T20:04:07.568Z,99175.41
2023-09-01T20:06:34.039Z,99172.63
2023-09-01T20:09:01.251Z,99172.19
2023-09-01T20:11:27.824Z,99174.97
2023-09-01T20:13:54.301Z,99168.56
2023-09-01T20:16:20.797Z,99167.00
2023-09-01T20:18:47.262Z,99170.94
2023-09-01T20:21:13.735Z,99177.63
2023-09-01T20:23:40.138Z,99173.31
2023-09-01T20:26:06.565Z,99172.50
2023-09-01T20:28:33.012Z,99168.94
2023-09-01T20:30:59.596Z,99174.41
2023-09-01T20:33:26.033Z,99173.22
2023-09-01T20:35:52.481Z,99184.25
2023-09-01T20:38:18.894Z,99167.66
2023-09-01T20:40:45.294Z,99170.41
2023-09-01T20:43:11.750Z,99172.78
2023-09-01T20:45:38.176Z,99163.28
2023-09-01T20:48:04.635Z,99163.28
2023-09-01T20:50:31.116Z,99158.91
2023-09-01T20:52:57.534Z,99163.63
2023-09-01T20:55:23.946Z,99170.34
2023-09-01T20:57:50.353Z,99158.88
2023-09-01T21:00:16.801Z,99159.22
2023-09-01T21:02:43.275Z,99158.38
2023-09-01T21:05:09.852Z,99159.56
2023-09-01T21:07:36.320Z,99162.72
2023-09-01T21:10:02.796Z,99156.81
2023-09-01T21:12:29.193Z,99155.19
2023-09-01T21:14:55.602Z,99155.59
2023-09-01T21:17:22.060Z,99165.47
2023-09-01T21:19:48.482Z,99161.47
2023-09-01T21:22:14.917Z,99161.47
2023-09-01T21:24:41.344Z,99165.81
2023-09-01T21:27:07.819Z,99167.34
2023-09-01T21:29:34.261Z,99158.66
2023-09-01T21:32:00.735Z,99164.22
2023-09-01T21:34:27.156Z,99163.88
2023-09-01T21:36:53.573Z,99165.47
2023-09-01T21:39:20.042Z,99165.03
2023-09-01T21:41:46.452Z,99174.53
2023-09-01T21:44:12.878Z,99169.34
2023-09-01T21:46:39.338Z,99176.78
2023-09-01T21:49:05.706Z,99177.53
2023-09-01T21:51:32.155Z,99172.81
2023-09-01T21:53:58.590Z,99175.94
2023-09-01T21:56:25.013Z,99174.34
2023-09-01T21:58:51.449Z,99180.25
2023-09-01T22:01:17.934Z,99174.34
2023-09-01T22:03:44.425Z,99179.03
2023-09-01T22:06:10.830Z,99179.44
2023-09-01T22:08:37.262Z,99172.72
2023-09-01T22:11:03.700Z,99181.81
2023-09-01T22:13:30.181Z,99170.81
2023-09-01T22:15:56.655Z,99179.09
2023-09-01T22:18:23.152Z,99177.84
2023-09-01T22:20:49.583Z,99173.50
2023-09-01T22:23:16.251Z,99182.94
2023-09-01T22:25:42.876Z,99185.25
2023-09-01T22:28:09.285Z,99178.09
2023-09-01T22:30:35.707Z,99170.97
2023-09-01T22:33:02.189Z,99161.88
2023-09-01T22:35:28.650Z,99160.66
2023-09-01T22:38:07.119Z,99158.28
2023-09-01T22:40:37.152Z,99162.97
2023-09-01T22:43:03.562Z,99168.50
2023-09-01T22:45:30.008Z,99163.75
2023-09-01T22:47:56.452Z,99167.31
2023-09-01T22:50:22.885Z,99169.28
2023-09-01T22:52:49.311Z,99169.28
2023-09-01T22:55:15.719Z,99171.25
2023-09-01T22:57:42.121Z,99166.94
2023-09-01T23:00:08.519Z,99164.16
2023-09-01T23:02:34.931Z,99168.88
2023-09-01T23:05:01.378Z,99168.06
2023-09-01T23:07:27.868Z,99169.25
2023-09-01T23:09:54.319Z,99166.03
2023-09-01T23:12:20.749Z,99161.69
2023-09-01T23:14:47.159Z,99154.16
2023-09-01T23:17:13.585Z,99158.91
2023-09-01T23:19:40.028Z,99158.47
2023-09-01T23:22:06.495Z,99153.31
2023-09-01T23:24:32.924Z,99154.06
2023-09-01T23:26:59.377Z,99146.97
2023-09-01T23:29:25.797Z,99155.66
2023-09-01T23:31:52.281Z,99156.41
2023-09-01T23:34:18.722Z,99165.47
2023-09-01T23:36:45.159Z,99159.16
2023-09-01T23:39:11.575Z,99158.34
2023-09-01T23:41:37.995Z,99156.75
2023-09-01T23:44:04.416Z,99151.25
2023-09-01T23:46:30.855Z,99151.66
2023-09-01T23:48:57.260Z,99150.06
2023-09-01T23:51:24.967Z,99152.81
2023-09-01T23:53:51.392Z,99149.25
2023-09-01T23:56:17.828Z,99147.69
2023-09-01T23:58:44.285Z,99140.94
